sensor_id;sensor_type;location;lat;lon;timestamp;temperature;humidity
3005;DHT22;1512;51.486;6.610;2023-03-14T00:00:23;11.00;1.00
3005;DHT22;1512;51.486;6.610;2023-03-14T00:04:32;11.10;1.00
3005;DHT22;1512;51.486;6.610;2023-03-14T00:08:42;11.20;1.00
3005;DHT22;1512;51.486;6.610;2023-03-14T00:12:50;11.30;1.00
3005;DHT22;1512;51.486;6.610;2023-03-14T00:16:59;11.30;1.00
3005;DHT22;1512;51.486;6.610;2023-03-14T00:21:09;11.40;1.00
3005;DHT22;1512;51.486;6.610;2023-03-14T00:25:18;11.50;99.90
3005;DHT22;1512;51.486;6.610;2023-03-14T00:29:27;11.60;1.00
3005;DHT22;1512;51.486;6.610;2023-03-14T00:33:35;11.60;2.50
3005;DHT22;1512;51.486;6.610;2023-03-14T00:37:44;11.50;1.00
3005;DHT22;1512;51.486;6.610;2023-03-14T00:41:53;11.30;99.90
3005;DHT22;1512;51.486;6.610;2023-03-14T00:46:21;11.30;34.30
3005;DHT22;1512;51.486;6.610;2023-03-14T00:50:29;11.20;1.00
3005;DHT22;1512;51.486;6.610;2023-03-14T00:54:38;11.10;1.00
3005;DHT22;1512;51.486;6.610;2023-03-14T00:58:47;11.20;1.00
3005;DHT22;1512;51.486;6.610;2023-03-14T01:02:55;11.10;1.00
3005;DHT22;1512;51.486;6.610;2023-03-14T01:07:04;11.00;19.40
3005;DHT22;1512;51.486;6.610;2023-03-14T01:11:23;11.00;1.00
3005;DHT22;1512;51.486;6.610;2023-03-14T01:15:27;10.90;99.90
3005;DHT22;1512;51.486;6.610;2023-03-14T01:19:36;10.90;1.00
3005;DHT22;1512;51.486;6.610;2023-03-14T01:23:46;11.00;99.90
3005;DHT22;1512;51.486;6.610;2023-03-14T01:27:54;10.90;99.90
3005;DHT22;1512;51.486;6.610;2023-03-14T01:32:03;10.90;1.00
3005;DHT22;1512;51.486;6.610;2023-03-14T01:36:13;10.90;1.00
3005;DHT22;1512;51.486;6.610;2023-03-14T01:40:22;10.80;1.00
3005;DHT22;1512;51.486;6.610;2023-03-14T01:44:57;10.80;89.70
3005;DHT22;1512;51.486;6.610;2023-03-14T01:49:24;10.70;77.90
3005;DHT22;1512;51.486;6.610;2023-03-14T01:53:34;10.50;99.90
3005;DHT22;1512;51.486;6.610;2023-03-14T01:57:49;10.50;99.90
3005;DHT22;1512;51.486;6.610;2023-03-14T02:01:59;10.50;99.90
3005;DHT22;1512;51.486;6.610;2023-03-14T02:06:08;10.50;99.90
3005;DHT22;1512;51.486;6.610;2023-03-14T02:10:19;10.40;99.90
3005;DHT22;1512;51.486;6.610;2023-03-14T02:14:36;10.40;99.90
3005;DHT22;1512;51.486;6.610;2023-03-14T02:18:41;10.30;99.90
3005;DHT22;1512;51.486;6.610;2023-03-14T02:22:49;10.30;99.90
3005;DHT22;1512;51.486;6.610;2023-03-14T02:27:12;10.40;99.90
3005;DHT22;1512;51.486;6.610;2023-03-14T02:31:22;10.50;1.00
3005;DHT22;1512;51.486;6.610;2023-03-14T02:35:41;10.40;1.00
3005;DHT22;1512;51.486;6.610;2023-03-14T02:39:46;10.40;1.00
3005;DHT22;1512;51.486;6.610;2023-03-14T02:43:56;10.40;1.00
3005;DHT22;1512;51.486;6.610;2023-03-14T02:48:14;10.40;1.00
3005;DHT22;1512;51.486;6.610;2023-03-14T02:52:23;10.30;99.90
3005;DHT22;1512;51.486;6.610;2023-03-14T02:56:31;10.30;99.90
3005;DHT22;1512;51.486;6.610;2023-03-14T03:00:40;10.30;99.90
3005;DHT22;1512;51.486;6.610;2023-03-14T03:04:48;10.30;99.90
3005;DHT22;1512;51.486;6.610;2023-03-14T03:08:57;10.30;1.00
3005;DHT22;1512;51.486;6.610;2023-03-14T03:13:05;10.20;1.00
3005;DHT22;1512;51.486;6.610;2023-03-14T03:17:14;10.30;1.00
3005;DHT22;1512;51.486;6.610;2023-03-14T03:21:23;10.30;1.00
3005;DHT22;1512;51.486;6.610;2023-03-14T03:25:32;10.30;1.00
3005;DHT22;1512;51.486;6.610;2023-03-14T03:29:40;10.30;1.00
3005;DHT22;1512;51.486;6.610;2023-03-14T03:33:49;10.30;99.90
3005;DHT22;1512;51.486;6.610;2023-03-14T03:37:58;10.30;99.90
3005;DHT22;1512;51.486;6.610;2023-03-14T03:42:06;10.30;4.00
3005;DHT22;1512;51.486;6.610;2023-03-14T03:46:15;10.30;1.00
3005;DHT22;1512;51.486;6.610;2023-03-14T03:50:44;10.40;1.00
3005;DHT22;1512;51.486;6.610;2023-03-14T03:54:52;10.40;1.00
3005;DHT22;1512;51.486;6.610;2023-03-14T03:59:01;10.40;99.90
3005;DHT22;1512;51.486;6.610;2023-03-14T04:03:09;10.40;1.00
3005;DHT22;1512;51.486;6.610;2023-03-14T04:07:18;10.30;1.00
3005;DHT22;1512;51.486;6.610;2023-03-14T04:11:27;10.40;1.00
3005;DHT22;1512;51.486;6.610;2023-03-14T04:15:35;10.50;99.90
3005;DHT22;1512;51.486;6.610;2023-03-14T04:19:44;10.50;99.90
3005;DHT22;1512;51.486;6.610;2023-03-14T04:23:53;10.40;99.90
3005;DHT22;1512;51.486;6.610;2023-03-14T04:28:02;10.40;99.90
3005;DHT22;1512;51.486;6.610;2023-03-14T04:32:11;10.40;1.00
3005;DHT22;1512;51.486;6.610;2023-03-14T04:36:20;10.40;1.00
3005;DHT22;1512;51.486;6.610;2023-03-14T04:40:28;10.30;1.00
3005;DHT22;1512;51.486;6.610;2023-03-14T04:44:37;10.20;99.90
3005;DHT22;1512;51.486;6.610;2023-03-14T04:48:46;10.10;1.00
3005;DHT22;1512;51.486;6.610;2023-03-14T04:52:54;10.10;95.90
3005;DHT22;1512;51.486;6.610;2023-03-14T04:57:03;10.00;36.40
3005;DHT22;1512;51.486;6.610;2023-03-14T05:01:12;9.90;99.90
3005;DHT22;1512;51.486;6.610;2023-03-14T05:05:21;9.90;1.00
3005;DHT22;1512;51.486;6.610;2023-03-14T05:09:29;9.80;1.00
3005;DHT22;1512;51.486;6.610;2023-03-14T05:13:57;9.80;1.00
3005;DHT22;1512;51.486;6.610;2023-03-14T05:18:06;9.80;1.00
3005;DHT22;1512;51.486;6.610;2023-03-14T05:22:14;9.70;1.00
3005;DHT22;1512;51.486;6.610;2023-03-14T05:26:23;9.60;1.00
3005;DHT22;1512;51.486;6.610;2023-03-14T05:30:32;9.60;1.00
3005;DHT22;1512;51.486;6.610;2023-03-14T05:34:41;9.60;33.90
3005;DHT22;1512;51.486;6.610;2023-03-14T05:38:50;9.50;21.10
3005;DHT22;1512;51.486;6.610;2023-03-14T05:42:58;9.50;57.90
3005;DHT22;1512;51.486;6.610;2023-03-14T05:47:07;9.50;87.40
3005;DHT22;1512;51.486;6.610;2023-03-14T05:51:15;9.50;87.50
3005;DHT22;1512;51.486;6.610;2023-03-14T05:55:24;9.50;98.10
3005;DHT22;1512;51.486;6.610;2023-03-14T05:59:33;9.50;99.90
3005;DHT22;1512;51.486;6.610;2023-03-14T06:03:41;9.50;99.90
3005;DHT22;1512;51.486;6.610;2023-03-14T06:07:50;9.50;99.90
3005;DHT22;1512;51.486;6.610;2023-03-14T06:11:59;9.60;99.90
3005;DHT22;1512;51.486;6.610;2023-03-14T06:16:08;9.60;99.90
3005;DHT22;1512;51.486;6.610;2023-03-14T06:20:17;9.60;99.90
3005;DHT22;1512;51.486;6.610;2023-03-14T06:24:26;9.60;99.90
3005;DHT22;1512;51.486;6.610;2023-03-14T06:28:34;9.60;99.90
3005;DHT22;1512;51.486;6.610;2023-03-14T06:32:43;9.80;99.90
3005;DHT22;1512;51.486;6.610;2023-03-14T06:36:52;9.80;99.90
3005;DHT22;1512;51.486;6.610;2023-03-14T06:41:05;9.80;99.90
3005;DHT22;1512;51.486;6.610;2023-03-14T06:45:15;9.80;99.90
3005;DHT22;1512;51.486;6.610;2023-03-14T06:49:23;9.90;99.90
3005;DHT22;1512;51.486;6.610;2023-03-14T06:53:32;9.90;99.90
3005;DHT22;1512;51.486;6.610;2023-03-14T06:57:44;10.00;99.90
3005;DHT22;1512;51.486;6.610;2023-03-14T07:01:53;10.00;99.90
3005;DHT22;1512;51.486;6.610;2023-03-14T07:06:02;10.00;99.90
3005;DHT22;1512;51.486;6.610;2023-03-14T07:10:11;10.00;99.90
3005;DHT22;1512;51.486;6.610;2023-03-14T07:14:39;10.00;99.90
3005;DHT22;1512;51.486;6.610;2023-03-14T07:18:47;10.10;99.90
3005;DHT22;1512;51.486;6.610;2023-03-14T07:22:56;10.00;99.90
3005;DHT22;1512;51.486;6.610;2023-03-14T07:27:07;10.10;99.90
3005;DHT22;1512;51.486;6.610;2023-03-14T07:31:17;10.10;99.90
3005;DHT22;1512;51.486;6.610;2023-03-14T07:35:26;10.10;99.90
3005;DHT22;1512;51.486;6.610;2023-03-14T07:39:34;10.10;99.90
3005;DHT22;1512;51.486;6.610;2023-03-14T07:43:43;10.20;99.90
3005;DHT22;1512;51.486;6.610;2023-03-14T07:47:51;10.30;99.90
3005;DHT22;1512;51.486;6.610;2023-03-14T07:52:21;10.20;99.90
3005;DHT22;1512;51.486;6.610;2023-03-14T07:56:31;10.20;99.90
3005;DHT22;1512;51.486;6.610;2023-03-14T08:00:40;10.30;99.90
3005;DHT22;1512;51.486;6.610;2023-03-14T08:04:48;10.50;99.90
3005;DHT22;1512;51.486;6.610;2023-03-14T08:08:57;10.40;99.90
3005;DHT22;1512;51.486;6.610;2023-03-14T08:13:06;10.50;99.90
3005;DHT22;1512;51.486;6.610;2023-03-14T08:17:34;10.50;99.90
3005;DHT22;1512;51.486;6.610;2023-03-14T08:21:42;10.70;99.90
3005;DHT22;1512;51.486;6.610;2023-03-14T08:25:52;10.70;99.90
3005;DHT22;1512;51.486;6.610;2023-03-14T08:30:00;10.60;99.90
3005;DHT22;1512;51.486;6.610;2023-03-14T08:34:09;10.70;99.90
3005;DHT22;1512;51.486;6.610;2023-03-14T08:38:17;10.60;99.90
3005;DHT22;1512;51.486;6.610;2023-03-14T08:42:26;10.60;99.90
3005;DHT22;1512;51.486;6.610;2023-03-14T08:46:35;10.60;99.90
3005;DHT22;1512;51.486;6.610;2023-03-14T08:50:44;10.70;99.90
3005;DHT22;1512;51.486;6.610;2023-03-14T08:54:52;10.70;99.90
3005;DHT22;1512;51.486;6.610;2023-03-14T08:59:01;10.80;99.90
3005;DHT22;1512;51.486;6.610;2023-03-14T09:03:10;10.20;99.90
3005;DHT22;1512;51.486;6.610;2023-03-14T09:07:18;9.70;1.00
3005;DHT22;1512;51.486;6.610;2023-03-14T09:11:27;9.40;1.00
3005;DHT22;1512;51.486;6.610;2023-03-14T09:15:36;9.20;99.90
3005;DHT22;1512;51.486;6.610;2023-03-14T09:19:44;9.10;99.90
3005;DHT22;1512;51.486;6.610;2023-03-14T09:23:53;9.00;99.90
3005;DHT22;1512;51.486;6.610;2023-03-14T09:28:01;8.90;1.00
3005;DHT22;1512;51.486;6.610;2023-03-14T09:32:10;8.90;99.90
3005;DHT22;1512;51.486;6.610;2023-03-14T09:36:18;8.80;99.90
3005;DHT22;1512;51.486;6.610;2023-03-14T09:40:31;8.90;1.00
3005;DHT22;1512;51.486;6.610;2023-03-14T09:44:45;8.90;1.00
3005;DHT22;1512;51.486;6.610;2023-03-14T09:48:51;8.90;1.00
3005;DHT22;1512;51.486;6.610;2023-03-14T09:53:02;8.80;1.00
3005;DHT22;1512;51.486;6.610;2023-03-14T09:57:18;8.70;1.00
3005;DHT22;1512;51.486;6.610;2023-03-14T10:01:30;8.60;1.00
3005;DHT22;1512;51.486;6.610;2023-03-14T10:05:40;8.50;99.90
3005;DHT22;1512;51.486;6.610;2023-03-14T10:09:50;8.60;1.00
3005;DHT22;1512;51.486;6.610;2023-03-14T10:14:08;8.60;1.00
3005;DHT22;1512;51.486;6.610;2023-03-14T10:18:36;8.50;25.20
3005;DHT22;1512;51.486;6.610;2023-03-14T10:22:45;8.50;99.90
3005;DHT22;1512;51.486;6.610;2023-03-14T10:26:59;8.20;13.60
3005;DHT22;1512;51.486;6.610;2023-03-14T10:31:36;8.10;1.00
3005;DHT22;1512;51.486;6.610;2023-03-14T10:35:40;8.20;99.90
3005;DHT22;1512;51.486;6.610;2023-03-14T10:39:51;8.00;99.90
3005;DHT22;1512;51.486;6.610;2023-03-14T10:44:02;7.80;99.90
3005;DHT22;1512;51.486;6.610;2023-03-14T10:48:23;7.60;99.90
3005;DHT22;1512;51.486;6.610;2023-03-14T10:52:32;7.50;99.90
3005;DHT22;1512;51.486;6.610;2023-03-14T10:56:42;7.40;28.20
3005;DHT22;1512;51.486;6.610;2023-03-14T11:01:00;7.60;99.90
3005;DHT22;1512;51.486;6.610;2023-03-14T11:06:11;7.80;99.90
3005;DHT22;1512;51.486;6.610;2023-03-14T11:19:08;7.90;1.00
3005;DHT22;1512;51.486;6.610;2023-03-14T11:23:17;8.00;1.00
3005;DHT22;1512;51.486;6.610;2023-03-14T11:27:42;7.90;1.00
3005;DHT22;1512;51.486;6.610;2023-03-14T11:31:47;7.80;1.00
3005;DHT22;1512;51.486;6.610;2023-03-14T11:36:05;7.80;1.00
3005;DHT22;1512;51.486;6.610;2023-03-14T11:40:19;7.60;1.00
3005;DHT22;1512;51.486;6.610;2023-03-14T11:44:34;7.60;1.00
3005;DHT22;1512;51.486;6.610;2023-03-14T11:48:58;7.70;1.00
3005;DHT22;1512;51.486;6.610;2023-03-14T11:53:47;8.20;1.00
3005;DHT22;1512;51.486;6.610;2023-03-14T11:57:53;8.40;1.00
3005;DHT22;1512;51.486;6.610;2023-03-14T12:02:04;8.60;1.00
3005;DHT22;1512;51.486;6.610;2023-03-14T12:06:24;8.60;1.00
3005;DHT22;1512;51.486;6.610;2023-03-14T12:10:40;8.70;1.00
3005;DHT22;1512;51.486;6.610;2023-03-14T12:19:25;8.40;1.00
3005;DHT22;1512;51.486;6.610;2023-03-14T12:23:43;7.80;1.00
3005;DHT22;1512;51.486;6.610;2023-03-14T12:32:21;7.40;1.00
3005;DHT22;1512;51.486;6.610;2023-03-14T12:36:32;7.50;1.00
3005;DHT22;1512;51.486;6.610;2023-03-14T12:40:41;7.50;1.00
3005;DHT22;1512;51.486;6.610;2023-03-14T12:44:49;7.70;1.00
3005;DHT22;1512;51.486;6.610;2023-03-14T12:49:03;7.90;1.00
3005;DHT22;1512;51.486;6.610;2023-03-14T12:57:48;8.30;1.00
3005;DHT22;1512;51.486;6.610;2023-03-14T13:02:25;8.40;1.00
3005;DHT22;1512;51.486;6.610;2023-03-14T13:06:58;8.20;1.00
3005;DHT22;1512;51.486;6.610;2023-03-14T13:11:39;7.50;1.00
3005;DHT22;1512;51.486;6.610;2023-03-14T13:16:15;7.50;1.00
3005;DHT22;1512;51.486;6.610;2023-03-14T13:20:28;7.50;1.00
3005;DHT22;1512;51.486;6.610;2023-03-14T13:24:57;7.80;1.00
3005;DHT22;1512;51.486;6.610;2023-03-14T13:29:35;8.00;1.00
3005;DHT22;1512;51.486;6.610;2023-03-14T13:34:20;8.20;1.00
3005;DHT22;1512;51.486;6.610;2023-03-14T13:38:42;8.40;1.00
3005;DHT22;1512;51.486;6.610;2023-03-14T13:47:25;8.70;1.00
3005;DHT22;1512;51.486;6.610;2023-03-14T13:51:34;9.00;1.00
3005;DHT22;1512;51.486;6.610;2023-03-14T13:55:43;9.20;1.00
3005;DHT22;1512;51.486;6.610;2023-03-14T14:00:06;9.30;1.00
3005;DHT22;1512;51.486;6.610;2023-03-14T14:04:19;9.50;1.00
3005;DHT22;1512;51.486;6.610;2023-03-14T14:08:29;9.40;99.90
3005;DHT22;1512;51.486;6.610;2023-03-14T14:12:59;9.20;99.90
3005;DHT22;1512;51.486;6.610;2023-03-14T14:16:53;9.20;99.90
3005;DHT22;1512;51.486;6.610;2023-03-14T14:21:03;9.30;99.90
3005;DHT22;1512;51.486;6.610;2023-03-14T14:25:15;9.30;99.90
3005;DHT22;1512;51.486;6.610;2023-03-14T14:29:27;9.40;99.90
3005;DHT22;1512;51.486;6.610;2023-03-14T14:33:41;9.40;99.90
3005;DHT22;1512;51.486;6.610;2023-03-14T14:37:50;9.40;99.90
3005;DHT22;1512;51.486;6.610;2023-03-14T14:41:59;9.30;99.90
3005;DHT22;1512;51.486;6.610;2023-03-14T14:46:08;9.30;99.90
3005;DHT22;1512;51.486;6.610;2023-03-14T14:50:33;9.30;99.90
3005;DHT22;1512;51.486;6.610;2023-03-14T14:54:53;9.20;99.90
3005;DHT22;1512;51.486;6.610;2023-03-14T14:59:05;9.10;99.90
3005;DHT22;1512;51.486;6.610;2023-03-14T15:03:15;9.10;99.90
3005;DHT22;1512;51.486;6.610;2023-03-14T15:07:24;8.90;99.90
3005;DHT22;1512;51.486;6.610;2023-03-14T15:11:34;8.80;99.90
3005;DHT22;1512;51.486;6.610;2023-03-14T15:15:43;8.70;99.90
3005;DHT22;1512;51.486;6.610;2023-03-14T15:19:53;8.70;99.90
3005;DHT22;1512;51.486;6.610;2023-03-14T15:24:05;8.70;99.90
3005;DHT22;1512;51.486;6.610;2023-03-14T15:28:19;8.60;99.90
3005;DHT22;1512;51.486;6.610;2023-03-14T15:32:28;8.60;99.90
3005;DHT22;1512;51.486;6.610;2023-03-14T15:36:38;8.50;99.90
3005;DHT22;1512;51.486;6.610;2023-03-14T15:40:47;8.50;99.90
3005;DHT22;1512;51.486;6.610;2023-03-14T15:44:56;8.50;99.90
3005;DHT22;1512;51.486;6.610;2023-03-14T15:49:05;8.40;99.90
3005;DHT22;1512;51.486;6.610;2023-03-14T15:53:14;8.30;99.90
3005;DHT22;1512;51.486;6.610;2023-03-14T15:57:23;8.30;99.90
3005;DHT22;1512;51.486;6.610;2023-03-14T16:01:32;8.30;99.90
3005;DHT22;1512;51.486;6.610;2023-03-14T16:05:41;8.20;99.90
3005;DHT22;1512;51.486;6.610;2023-03-14T16:09:49;8.10;99.90
3005;DHT22;1512;51.486;6.610;2023-03-14T16:13:58;8.10;99.90
3005;DHT22;1512;51.486;6.610;2023-03-14T16:18:07;8.00;99.90
3005;DHT22;1512;51.486;6.610;2023-03-14T16:22:17;7.90;99.90
3005;DHT22;1512;51.486;6.610;2023-03-14T16:26:26;7.90;99.90
3005;DHT22;1512;51.486;6.610;2023-03-14T16:30:36;8.00;99.90
3005;DHT22;1512;51.486;6.610;2023-03-14T16:34:44;7.90;99.90
3005;DHT22;1512;51.486;6.610;2023-03-14T16:38:53;7.80;99.90
3005;DHT22;1512;51.486;6.610;2023-03-14T16:43:02;7.80;99.90
3005;DHT22;1512;51.486;6.610;2023-03-14T16:47:12;7.70;99.90
3005;DHT22;1512;51.486;6.610;2023-03-14T16:51:22;7.60;99.90
3005;DHT22;1512;51.486;6.610;2023-03-14T16:55:30;7.60;99.90
3005;DHT22;1512;51.486;6.610;2023-03-14T16:59:39;7.40;99.90
3005;DHT22;1512;51.486;6.610;2023-03-14T17:03:49;7.40;99.90
3005;DHT22;1512;51.486;6.610;2023-03-14T17:07:58;7.30;99.90
3005;DHT22;1512;51.486;6.610;2023-03-14T17:12:07;7.20;99.90
3005;DHT22;1512;51.486;6.610;2023-03-14T17:16:16;7.20;99.90
3005;DHT22;1512;51.486;6.610;2023-03-14T17:20:45;7.20;99.90
3005;DHT22;1512;51.486;6.610;2023-03-14T17:25:13;7.00;99.90
3005;DHT22;1512;51.486;6.610;2023-03-14T17:29:41;6.90;99.90
3005;DHT22;1512;51.486;6.610;2023-03-14T17:38:27;7.10;99.90
3005;DHT22;1512;51.486;6.610;2023-03-14T17:42:38;6.90;99.90
3005;DHT22;1512;51.486;6.610;2023-03-14T17:46:47;6.90;99.90
3005;DHT22;1512;51.486;6.610;2023-03-14T17:50:56;6.90;99.90
3005;DHT22;1512;51.486;6.610;2023-03-14T17:55:26;6.80;99.90
3005;DHT22;1512;51.486;6.610;2023-03-14T17:59:35;6.70;99.90
3005;DHT22;1512;51.486;6.610;2023-03-14T18:03:44;6.60;99.90
3005;DHT22;1512;51.486;6.610;2023-03-14T18:07:53;6.80;99.90
3005;DHT22;1512;51.486;6.610;2023-03-14T18:12:01;6.90;99.90
3005;DHT22;1512;51.486;6.610;2023-03-14T18:16:31;6.80;99.90
3005;DHT22;1512;51.486;6.610;2023-03-14T18:20:40;6.70;99.90
3005;DHT22;1512;51.486;6.610;2023-03-14T18:24:50;6.60;99.90
3005;DHT22;1512;51.486;6.610;2023-03-14T18:28:58;6.60;99.90
3005;DHT22;1512;51.486;6.610;2023-03-14T18:33:08;6.50;99.90
3005;DHT22;1512;51.486;6.610;2023-03-14T18:37:19;6.50;99.90
3005;DHT22;1512;51.486;6.610;2023-03-14T18:41:27;6.60;99.90
3005;DHT22;1512;51.486;6.610;2023-03-14T18:45:36;6.40;99.90
3005;DHT22;1512;51.486;6.610;2023-03-14T18:49:45;6.20;99.90
3005;DHT22;1512;51.486;6.610;2023-03-14T18:53:56;6.20;99.90
3005;DHT22;1512;51.486;6.610;2023-03-14T18:58:09;6.30;99.90
3005;DHT22;1512;51.486;6.610;2023-03-14T19:02:18;6.10;99.90
3005;DHT22;1512;51.486;6.610;2023-03-14T19:06:28;6.10;99.90
3005;DHT22;1512;51.486;6.610;2023-03-14T19:10:38;6.20;99.90
3005;DHT22;1512;51.486;6.610;2023-03-14T19:14:47;6.20;99.90
3005;DHT22;1512;51.486;6.610;2023-03-14T19:18:57;6.10;99.90
3005;DHT22;1512;51.486;6.610;2023-03-14T19:23:25;6.10;99.90
3005;DHT22;1512;51.486;6.610;2023-03-14T19:27:34;6.00;99.90
3005;DHT22;1512;51.486;6.610;2023-03-14T19:32:03;5.90;99.90
3005;DHT22;1512;51.486;6.610;2023-03-14T19:36:33;6.00;99.90
3005;DHT22;1512;51.486;6.610;2023-03-14T19:41:01;5.90;99.90
3005;DHT22;1512;51.486;6.610;2023-03-14T19:45:10;5.90;99.90
3005;DHT22;1512;51.486;6.610;2023-03-14T19:49:19;5.80;99.90
3005;DHT22;1512;51.486;6.610;2023-03-14T19:53:29;5.80;99.90
3005;DHT22;1512;51.486;6.610;2023-03-14T19:57:38;5.70;99.90
3005;DHT22;1512;51.486;6.610;2023-03-14T20:01:47;5.80;99.90
3005;DHT22;1512;51.486;6.610;2023-03-14T20:05:57;5.80;99.90
3005;DHT22;1512;51.486;6.610;2023-03-14T20:10:07;5.60;99.90
3005;DHT22;1512;51.486;6.610;2023-03-14T20:14:16;5.60;99.90
3005;DHT22;1512;51.486;6.610;2023-03-14T20:18:26;5.50;99.90
3005;DHT22;1512;51.486;6.610;2023-03-14T20:22:35;5.40;99.90
3005;DHT22;1512;51.486;6.610;2023-03-14T20:26:45;5.30;99.90
3005;DHT22;1512;51.486;6.610;2023-03-14T20:30:53;5.30;99.90
3005;DHT22;1512;51.486;6.610;2023-03-14T20:35:02;5.30;99.90
3005;DHT22;1512;51.486;6.610;2023-03-14T20:39:11;5.40;99.90
3005;DHT22;1512;51.486;6.610;2023-03-14T20:43:20;5.40;99.90
3005;DHT22;1512;51.486;6.610;2023-03-14T20:47:29;5.30;99.90
3005;DHT22;1512;51.486;6.610;2023-03-14T20:51:37;5.30;99.90
3005;DHT22;1512;51.486;6.610;2023-03-14T20:55:46;5.30;99.90
3005;DHT22;1512;51.486;6.610;2023-03-14T20:59:55;5.30;99.90
3005;DHT22;1512;51.486;6.610;2023-03-14T21:04:04;5.30;99.90
3005;DHT22;1512;51.486;6.610;2023-03-14T21:08:18;5.30;99.90
3005;DHT22;1512;51.486;6.610;2023-03-14T21:12:26;5.30;1.00
3005;DHT22;1512;51.486;6.610;2023-03-14T21:16:35;5.30;99.90
3005;DHT22;1512;51.486;6.610;2023-03-14T21:20:44;5.10;1.00
3005;DHT22;1512;51.486;6.610;2023-03-14T21:24:53;5.10;1.00
3005;DHT22;1512;51.486;6.610;2023-03-14T21:29:02;5.00;1.00
3005;DHT22;1512;51.486;6.610;2023-03-14T21:33:11;5.00;1.00
3005;DHT22;1512;51.486;6.610;2023-03-14T21:37:21;5.00;1.00
3005;DHT22;1512;51.486;6.610;2023-03-14T21:41:31;4.90;1.00
3005;DHT22;1512;51.486;6.610;2023-03-14T21:45:40;4.90;1.00
3005;DHT22;1512;51.486;6.610;2023-03-14T21:49:50;4.90;1.00
3005;DHT22;1512;51.486;6.610;2023-03-14T21:53:58;4.90;1.00
3005;DHT22;1512;51.486;6.610;2023-03-14T21:58:07;4.90;1.00
3005;DHT22;1512;51.486;6.610;2023-03-14T22:02:17;4.90;1.00
3005;DHT22;1512;51.486;6.610;2023-03-14T22:06:27;4.90;1.00
3005;DHT22;1512;51.486;6.610;2023-03-14T22:10:44;5.00;1.00
3005;DHT22;1512;51.486;6.610;2023-03-14T22:14:53;4.90;1.00
3005;DHT22;1512;51.486;6.610;2023-03-14T22:19:01;4.90;1.00
3005;DHT22;1512;51.486;6.610;2023-03-14T22:23:10;4.90;1.00
3005;DHT22;1512;51.486;6.610;2023-03-14T22:27:21;4.90;1.00
3005;DHT22;1512;51.486;6.610;2023-03-14T22:31:29;4.90;1.00
3005;DHT22;1512;51.486;6.610;2023-03-14T22:35:39;4.90;1.00
3005;DHT22;1512;51.486;6.610;2023-03-14T22:39:48;4.80;1.00
3005;DHT22;1512;51.486;6.610;2023-03-14T22:43:57;4.90;1.00
3005;DHT22;1512;51.486;6.610;2023-03-14T22:48:05;4.90;1.00
3005;DHT22;1512;51.486;6.610;2023-03-14T22:52:14;5.00;1.00
3005;DHT22;1512;51.486;6.610;2023-03-14T22:56:22;4.90;1.00
3005;DHT22;1512;51.486;6.610;2023-03-14T23:00:31;4.90;1.00
3005;DHT22;1512;51.486;6.610;2023-03-14T23:04:40;4.80;1.00
3005;DHT22;1512;51.486;6.610;2023-03-14T23:08:49;4.80;1.00
3005;DHT22;1512;51.486;6.610;2023-03-14T23:13:00;4.80;1.00
3005;DHT22;1512;51.486;6.610;2023-03-14T23:17:10;4.80;1.00
3005;DHT22;1512;51.486;6.610;2023-03-14T23:21:21;4.90;1.00
3005;DHT22;1512;51.486;6.610;2023-03-14T23:25:29;5.00;1.00
3005;DHT22;1512;51.486;6.610;2023-03-14T23:29:40;5.00;1.00
3005;DHT22;1512;51.486;6.610;2023-03-14T23:33:50;4.90;1.00
3005;DHT22;1512;51.486;6.610;2023-03-14T23:37:58;4.90;1.00
3005;DHT22;1512;51.486;6.610;2023-03-14T23:42:08;4.70;1.00
3005;DHT22;1512;51.486;6.610;2023-03-14T23:46:16;4.70;1.00
3005;DHT22;1512;51.486;6.610;2023-03-14T23:50:25;4.80;1.00
3005;DHT22;1512;51.486;6.610;2023-03-14T23:54:34;4.80;1.00
3005;DHT22;1512;51.486;6.610;2023-03-14T23:58:43;5.00;1.00
